sensor_id;sensor_type;location;lat;lon;timestamp;P1;durP1;ratioP1;P2;durP2;ratioP2
68765;SDS011;55756;45.582;11.484;2022-11-18T00:00:14;98.40;;;52.10;;
68765;SDS011;55756;45.582;11.484;2022-11-18T00:02:40;97.53;;;52.13;;
68765;SDS011;55756;45.582;11.484;2022-11-18T00:05:05;102.68;;;55.17;;
68765;SDS011;55756;45.582;11.484;2022-11-18T00:07:31;106.97;;;55.13;;
68765;SDS011;55756;45.582;11.484;2022-11-18T00:09:57;107.35;;;57.05;;
68765;SDS011;55756;45.582;11.484;2022-11-18T00:12:23;105.00;;;54.63;;
68765;SDS011;55756;45.582;11.484;2022-11-18T00:15:07;112.75;;;57.05;;
68765;SDS011;55756;45.582;11.484;2022-11-18T00:17:33;116.22;;;58.83;;
68765;SDS011;55756;45.582;11.484;2022-11-18T00:19:59;119.20;;;59.20;;
68765;SDS011;55756;45.582;11.484;2022-11-18T00:22:25;116.20;;;60.17;;
68765;SDS011;55756;45.582;11.484;2022-11-18T00:24:51;119.57;;;60.30;;
68765;SDS011;55756;45.582;11.484;2022-11-18T00:27:17;117.72;;;58.85;;
68765;SDS011;55756;45.582;11.484;2022-11-18T00:29:42;112.93;;;58.60;;
68765;SDS011;55756;45.582;11.484;2022-11-18T00:32:08;111.82;;;56.53;;
68765;SDS011;55756;45.582;11.484;2022-11-18T00:34:34;113.60;;;57.92;;
68765;SDS011;55756;45.582;11.484;2022-11-18T00:37:00;118.05;;;60.50;;
68765;SDS011;55756;45.582;11.484;2022-11-18T00:39:25;117.72;;;59.92;;
68765;SDS011;55756;45.582;11.484;2022-11-18T00:41:51;115.88;;;59.03;;
68765;SDS011;55756;45.582;11.484;2022-11-18T00:44:35;103.55;;;54.47;;
68765;SDS011;55756;45.582;11.484;2022-11-18T00:47:02;87.55;;;47.55;;
68765;SDS011;55756;45.582;11.484;2022-11-18T00:49:28;75.50;;;42.40;;
68765;SDS011;55756;45.582;11.484;2022-11-18T00:51:54;67.63;;;39.65;;
68765;SDS011;55756;45.582;11.484;2022-11-18T00:54:20;66.90;;;38.75;;
68765;SDS011;55756;45.582;11.484;2022-11-18T00:56:47;66.97;;;37.80;;
68765;SDS011;55756;45.582;11.484;2022-11-18T00:59:13;60.65;;;37.72;;
68765;SDS011;55756;45.582;11.484;2022-11-18T01:01:39;65.13;;;39.08;;
68765;SDS011;55756;45.582;11.484;2022-11-18T01:04:05;63.53;;;39.53;;
68765;SDS011;55756;45.582;11.484;2022-11-18T01:06:31;62.10;;;37.80;;
68765;SDS011;55756;45.582;11.484;2022-11-18T01:08:56;61.90;;;38.17;;
68765;SDS011;55756;45.582;11.484;2022-11-18T01:11:22;60.80;;;37.88;;
68765;SDS011;55756;45.582;11.484;2022-11-18T01:14:07;57.95;;;36.88;;
68765;SDS011;55756;45.582;11.484;2022-11-18T01:16:33;58.58;;;36.58;;
68765;SDS011;55756;45.582;11.484;2022-11-18T01:18:58;56.00;;;36.63;;
68765;SDS011;55756;45.582;11.484;2022-11-18T01:21:24;52.53;;;36.83;;
68765;SDS011;55756;45.582;11.484;2022-11-18T01:23:50;48.33;;;33.30;;
68765;SDS011;55756;45.582;11.484;2022-11-18T01:26:16;47.35;;;32.50;;
68765;SDS011;55756;45.582;11.484;2022-11-18T01:28:42;46.03;;;32.83;;
68765;SDS011;55756;45.582;11.484;2022-11-18T01:31:15;46.35;;;31.45;;
68765;SDS011;55756;45.582;11.484;2022-11-18T01:33:43;45.25;;;31.05;;
68765;SDS011;55756;45.582;11.484;2022-11-18T01:36:19;45.20;;;30.92;;
68765;SDS011;55756;45.582;11.484;2022-11-18T01:38:50;43.60;;;29.33;;
68765;SDS011;55756;45.582;11.484;2022-11-18T01:41:17;40.13;;;28.67;;
68765;SDS011;55756;45.582;11.484;2022-11-18T01:43:49;39.20;;;28.08;;
68765;SDS011;55756;45.582;11.484;2022-11-18T01:46:29;39.80;;;28.13;;
68765;SDS011;55756;45.582;11.484;2022-11-18T01:49:02;39.72;;;27.10;;
68765;SDS011;55756;45.582;11.484;2022-11-18T01:51:38;39.30;;;26.48;;
68765;SDS011;55756;45.582;11.484;2022-11-18T01:54:17;35.72;;;25.58;;
68765;SDS011;55756;45.582;11.484;2022-11-18T01:56:51;34.92;;;25.00;;
68765;SDS011;55756;45.582;11.484;2022-11-18T01:59:21;32.38;;;23.20;;
68765;SDS011;55756;45.582;11.484;2022-11-18T02:01:51;33.97;;;24.90;;
68765;SDS011;55756;45.582;11.484;2022-11-18T02:04:18;36.03;;;26.02;;
68765;SDS011;55756;45.582;11.484;2022-11-18T02:06:45;35.40;;;24.95;;
68765;SDS011;55756;45.582;11.484;2022-11-18T02:09:12;35.88;;;24.83;;
68765;SDS011;55756;45.582;11.484;2022-11-18T02:11:40;36.55;;;24.02;;
68765;SDS011;55756;45.582;11.484;2022-11-18T02:14:15;33.08;;;23.55;;
68765;SDS011;55756;45.582;11.484;2022-11-18T02:27:49;39.67;;;25.00;;
68765;SDS011;55756;45.582;11.484;2022-11-18T02:30:19;35.78;;;24.35;;
68765;SDS011;55756;45.582;11.484;2022-11-18T02:35:38;36.20;;;25.98;;
68765;SDS011;55756;45.582;11.484;2022-11-18T02:38:06;39.63;;;26.95;;
68765;SDS011;55756;45.582;11.484;2022-11-18T02:40:36;37.28;;;26.23;;
68765;SDS011;55756;45.582;11.484;2022-11-18T02:43:13;40.92;;;27.45;;
68765;SDS011;55756;45.582;11.484;2022-11-18T02:45:40;39.28;;;28.27;;
68765;SDS011;55756;45.582;11.484;2022-11-18T02:48:10;40.60;;;28.17;;
68765;SDS011;55756;45.582;11.484;2022-11-18T02:50:38;41.15;;;28.65;;
68765;SDS011;55756;45.582;11.484;2022-11-18T02:53:06;41.35;;;28.77;;
68765;SDS011;55756;45.582;11.484;2022-11-18T02:55:34;44.05;;;29.42;;
68765;SDS011;55756;45.582;11.484;2022-11-18T02:58:02;45.75;;;30.50;;
68765;SDS011;55756;45.582;11.484;2022-11-18T03:00:30;50.03;;;31.90;;
68765;SDS011;55756;45.582;11.484;2022-11-18T03:02:56;48.90;;;31.75;;
68765;SDS011;55756;45.582;11.484;2022-11-18T03:08:11;46.72;;;31.63;;
68765;SDS011;55756;45.582;11.484;2022-11-18T03:10:44;46.88;;;31.20;;
68765;SDS011;55756;45.582;11.484;2022-11-18T03:13:38;46.55;;;31.58;;
68765;SDS011;55756;45.582;11.484;2022-11-18T03:16:31;49.05;;;31.75;;
68765;SDS011;55756;45.582;11.484;2022-11-18T03:19:07;46.33;;;31.05;;
68765;SDS011;55756;45.582;11.484;2022-11-18T03:21:44;46.08;;;30.75;;
68765;SDS011;55756;45.582;11.484;2022-11-18T03:24:24;47.78;;;30.35;;
68765;SDS011;55756;45.582;11.484;2022-11-18T03:27:01;40.45;;;26.58;;
68765;SDS011;55756;45.582;11.484;2022-11-18T03:29:35;37.45;;;24.90;;
68765;SDS011;55756;45.582;11.484;2022-11-18T03:32:09;34.17;;;23.05;;
68765;SDS011;55756;45.582;11.484;2022-11-18T03:35:15;30.85;;;22.13;;
68765;SDS011;55756;45.582;11.484;2022-11-18T03:37:49;35.08;;;22.58;;
68765;SDS011;55756;45.582;11.484;2022-11-18T03:40:21;33.88;;;23.63;;
68765;SDS011;55756;45.582;11.484;2022-11-18T03:42:52;34.25;;;23.75;;
68765;SDS011;55756;45.582;11.484;2022-11-18T03:45:30;36.25;;;24.80;;
68765;SDS011;55756;45.582;11.484;2022-11-18T03:48:26;39.28;;;25.88;;
68765;SDS011;55756;45.582;11.484;2022-11-18T03:50:52;39.88;;;26.60;;
68765;SDS011;55756;45.582;11.484;2022-11-18T03:53:21;44.05;;;28.95;;
68765;SDS011;55756;45.582;11.484;2022-11-18T03:55:52;45.08;;;27.90;;
68765;SDS011;55756;45.582;11.484;2022-11-18T03:58:25;42.05;;;28.08;;
68765;SDS011;55756;45.582;11.484;2022-11-18T04:00:55;43.65;;;28.52;;
68765;SDS011;55756;45.582;11.484;2022-11-18T04:03:29;42.67;;;28.45;;
68765;SDS011;55756;45.582;11.484;2022-11-18T04:05:57;45.85;;;29.50;;
68765;SDS011;55756;45.582;11.484;2022-11-18T04:08:29;47.05;;;30.67;;
68765;SDS011;55756;45.582;11.484;2022-11-18T04:11:03;51.95;;;30.38;;
68765;SDS011;55756;45.582;11.484;2022-11-18T04:14:02;47.65;;;30.42;;
68765;SDS011;55756;45.582;11.484;2022-11-18T04:16:37;47.88;;;30.55;;
68765;SDS011;55756;45.582;11.484;2022-11-18T04:19:04;47.38;;;30.85;;
68765;SDS011;55756;45.582;11.484;2022-11-18T04:21:30;48.40;;;31.50;;
68765;SDS011;55756;45.582;11.484;2022-11-18T04:23:56;49.08;;;31.10;;
68765;SDS011;55756;45.582;11.484;2022-11-18T04:26:22;48.08;;;30.20;;
68765;SDS011;55756;45.582;11.484;2022-11-18T04:28:47;47.78;;;30.83;;
68765;SDS011;55756;45.582;11.484;2022-11-18T04:31:13;45.65;;;30.35;;
68765;SDS011;55756;45.582;11.484;2022-11-18T04:33:39;46.35;;;30.48;;
68765;SDS011;55756;45.582;11.484;2022-11-18T04:36:05;46.08;;;29.08;;
68765;SDS011;55756;45.582;11.484;2022-11-18T04:38:31;46.17;;;29.73;;
68765;SDS011;55756;45.582;11.484;2022-11-18T04:40:57;49.58;;;29.52;;
68765;SDS011;55756;45.582;11.484;2022-11-18T04:43:22;40.28;;;27.17;;
68765;SDS011;55756;45.582;11.484;2022-11-18T04:45:48;43.28;;;27.75;;
68765;SDS011;55756;45.582;11.484;2022-11-18T04:48:14;42.08;;;28.20;;
68765;SDS011;55756;45.582;11.484;2022-11-18T04:50:40;44.30;;;28.33;;
68765;SDS011;55756;45.582;11.484;2022-11-18T04:53:06;45.20;;;27.70;;
68765;SDS011;55756;45.582;11.484;2022-11-18T04:55:34;42.67;;;27.70;;
68765;SDS011;55756;45.582;11.484;2022-11-18T04:58:00;42.42;;;27.27;;
68765;SDS011;55756;45.582;11.484;2022-11-18T05:00:26;42.58;;;28.20;;
68765;SDS011;55756;45.582;11.484;2022-11-18T05:02:52;44.55;;;28.30;;
68765;SDS011;55756;45.582;11.484;2022-11-18T05:05:18;42.38;;;27.67;;
68765;SDS011;55756;45.582;11.484;2022-11-18T05:07:44;47.53;;;29.77;;
68765;SDS011;55756;45.582;11.484;2022-11-18T05:10:09;46.97;;;29.50;;
68765;SDS011;55756;45.582;11.484;2022-11-18T05:12:35;49.28;;;29.17;;
68765;SDS011;55756;45.582;11.484;2022-11-18T05:15:14;42.92;;;27.50;;
68765;SDS011;55756;45.582;11.484;2022-11-18T05:17:40;41.72;;;27.13;;
68765;SDS011;55756;45.582;11.484;2022-11-18T05:20:06;44.95;;;28.38;;
68765;SDS011;55756;45.582;11.484;2022-11-18T05:22:32;42.70;;;26.90;;
68765;SDS011;55756;45.582;11.484;2022-11-18T05:24:58;41.55;;;27.92;;
68765;SDS011;55756;45.582;11.484;2022-11-18T05:27:24;45.22;;;26.70;;
68765;SDS011;55756;45.582;11.484;2022-11-18T05:29:49;42.50;;;27.55;;
68765;SDS011;55756;45.582;11.484;2022-11-18T05:32:15;40.72;;;26.58;;
68765;SDS011;55756;45.582;11.484;2022-11-18T05:34:41;41.80;;;26.08;;
68765;SDS011;55756;45.582;11.484;2022-11-18T05:37:07;42.25;;;27.08;;
68765;SDS011;55756;45.582;11.484;2022-11-18T05:39:33;41.60;;;26.13;;
68765;SDS011;55756;45.582;11.484;2022-11-18T05:41:59;40.08;;;25.55;;
68765;SDS011;55756;45.582;11.484;2022-11-18T05:44:44;37.65;;;24.23;;
68765;SDS011;55756;45.582;11.484;2022-11-18T05:47:10;37.85;;;25.08;;
68765;SDS011;55756;45.582;11.484;2022-11-18T05:49:36;35.97;;;23.90;;
68765;SDS011;55756;45.582;11.484;2022-11-18T05:52:01;37.03;;;23.95;;
68765;SDS011;55756;45.582;11.484;2022-11-18T05:54:27;35.85;;;23.77;;
68765;SDS011;55756;45.582;11.484;2022-11-18T05:56:53;35.75;;;23.20;;
68765;SDS011;55756;45.582;11.484;2022-11-18T05:59:19;33.97;;;22.27;;
68765;SDS011;55756;45.582;11.484;2022-11-18T06:01:47;35.13;;;22.88;;
68765;SDS011;55756;45.582;11.484;2022-11-18T06:06:57;35.05;;;23.20;;
68765;SDS011;55756;45.582;11.484;2022-11-18T06:09:30;30.85;;;21.55;;
68765;SDS011;55756;45.582;11.484;2022-11-18T06:11:57;34.50;;;22.25;;
68765;SDS011;55756;45.582;11.484;2022-11-18T06:14:28;30.05;;;21.20;;
68765;SDS011;55756;45.582;11.484;2022-11-18T06:16:58;31.38;;;21.45;;
68765;SDS011;55756;45.582;11.484;2022-11-18T06:19:27;33.10;;;21.83;;
68765;SDS011;55756;45.582;11.484;2022-11-18T06:21:54;32.38;;;21.63;;
68765;SDS011;55756;45.582;11.484;2022-11-18T06:24:20;34.00;;;22.42;;
68765;SDS011;55756;45.582;11.484;2022-11-18T06:26:45;32.28;;;21.40;;
68765;SDS011;55756;45.582;11.484;2022-11-18T06:29:12;31.80;;;22.38;;
68765;SDS011;55756;45.582;11.484;2022-11-18T06:31:39;33.55;;;22.48;;
68765;SDS011;55756;45.582;11.484;2022-11-18T06:34:05;30.13;;;21.50;;
68765;SDS011;55756;45.582;11.484;2022-11-18T06:36:31;33.47;;;23.25;;
68765;SDS011;55756;45.582;11.484;2022-11-18T06:39:00;37.13;;;24.02;;
68765;SDS011;55756;45.582;11.484;2022-11-18T06:41:30;37.10;;;24.58;;
68765;SDS011;55756;45.582;11.484;2022-11-18T06:43:56;35.58;;;23.27;;
68765;SDS011;55756;45.582;11.484;2022-11-18T06:46:22;33.05;;;22.17;;
68765;SDS011;55756;45.582;11.484;2022-11-18T06:49:06;34.35;;;22.73;;
68765;SDS011;55756;45.582;11.484;2022-11-18T06:51:32;30.90;;;21.65;;
68765;SDS011;55756;45.582;11.484;2022-11-18T06:53:57;35.42;;;22.73;;
68765;SDS011;55756;45.582;11.484;2022-11-18T06:56:23;40.10;;;24.63;;
68765;SDS011;55756;45.582;11.484;2022-11-18T06:58:53;40.03;;;25.90;;
68765;SDS011;55756;45.582;11.484;2022-11-18T07:01:22;39.85;;;26.33;;
68765;SDS011;55756;45.582;11.484;2022-11-18T07:03:52;41.67;;;26.65;;
68765;SDS011;55756;45.582;11.484;2022-11-18T07:06:19;41.65;;;27.20;;
68765;SDS011;55756;45.582;11.484;2022-11-18T07:08:47;39.88;;;26.48;;
68765;SDS011;55756;45.582;11.484;2022-11-18T07:11:15;40.63;;;27.13;;
68765;SDS011;55756;45.582;11.484;2022-11-18T07:13:46;43.75;;;29.20;;
68765;SDS011;55756;45.582;11.484;2022-11-18T07:16:13;42.03;;;29.17;;
68765;SDS011;55756;45.582;11.484;2022-11-18T07:18:42;43.90;;;29.65;;
68765;SDS011;55756;45.582;11.484;2022-11-18T07:21:10;50.67;;;33.10;;
68765;SDS011;55756;45.582;11.484;2022-11-18T07:23:37;47.65;;;31.75;;
68765;SDS011;55756;45.582;11.484;2022-11-18T07:26:03;48.85;;;33.83;;
68765;SDS011;55756;45.582;11.484;2022-11-18T07:28:30;49.30;;;34.40;;
68765;SDS011;55756;45.582;11.484;2022-11-18T07:30:59;52.97;;;34.63;;
68765;SDS011;55756;45.582;11.484;2022-11-18T07:33:27;50.17;;;33.97;;
68765;SDS011;55756;45.582;11.484;2022-11-18T07:35:53;52.40;;;35.30;;
68765;SDS011;55756;45.582;11.484;2022-11-18T07:38:19;52.92;;;35.45;;
68765;SDS011;55756;45.582;11.484;2022-11-18T07:40:45;49.45;;;34.25;;
68765;SDS011;55756;45.582;11.484;2022-11-18T07:43:11;52.35;;;34.53;;
68765;SDS011;55756;45.582;11.484;2022-11-18T07:45:36;55.35;;;34.70;;
68765;SDS011;55756;45.582;11.484;2022-11-18T07:48:02;57.05;;;34.90;;
68765;SDS011;55756;45.582;11.484;2022-11-18T07:50:29;51.85;;;34.53;;
68765;SDS011;55756;45.582;11.484;2022-11-18T07:52:55;50.80;;;34.08;;
68765;SDS011;55756;45.582;11.484;2022-11-18T07:55:21;55.08;;;34.97;;
68765;SDS011;55756;45.582;11.484;2022-11-18T07:57:47;52.30;;;34.63;;
68765;SDS011;55756;45.582;11.484;2022-11-18T08:00:13;51.65;;;34.50;;
68765;SDS011;55756;45.582;11.484;2022-11-18T08:02:39;53.50;;;35.72;;
68765;SDS011;55756;45.582;11.484;2022-11-18T08:05:07;44.25;;;31.75;;
68765;SDS011;55756;45.582;11.484;2022-11-18T08:07:33;41.05;;;28.67;;
68765;SDS011;55756;45.582;11.484;2022-11-18T08:09:59;39.22;;;28.48;;
68765;SDS011;55756;45.582;11.484;2022-11-18T08:12:27;41.30;;;29.60;;
68765;SDS011;55756;45.582;11.484;2022-11-18T08:14:55;39.30;;;26.55;;
68765;SDS011;55756;45.582;11.484;2022-11-18T08:17:20;40.45;;;27.55;;
68765;SDS011;55756;45.582;11.484;2022-11-18T08:19:46;40.72;;;26.67;;
68765;SDS011;55756;45.582;11.484;2022-11-18T08:22:12;38.20;;;28.02;;
68765;SDS011;55756;45.582;11.484;2022-11-18T08:24:41;37.50;;;26.67;;
68765;SDS011;55756;45.582;11.484;2022-11-18T08:27:06;34.58;;;24.77;;
68765;SDS011;55756;45.582;11.484;2022-11-18T08:29:32;31.95;;;24.40;;
68765;SDS011;55756;45.582;11.484;2022-11-18T08:31:59;33.90;;;24.05;;
68765;SDS011;55756;45.582;11.484;2022-11-18T08:34:24;36.75;;;26.85;;
68765;SDS011;55756;45.582;11.484;2022-11-18T08:36:50;36.30;;;26.25;;
68765;SDS011;55756;45.582;11.484;2022-11-18T08:39:16;33.10;;;24.83;;
68765;SDS011;55756;45.582;11.484;2022-11-18T08:41:42;33.03;;;23.85;;
68765;SDS011;55756;45.582;11.484;2022-11-18T08:44:09;32.00;;;23.60;;
68765;SDS011;55756;45.582;11.484;2022-11-18T08:46:37;33.35;;;23.85;;
68765;SDS011;55756;45.582;11.484;2022-11-18T08:49:03;35.28;;;24.60;;
68765;SDS011;55756;45.582;11.484;2022-11-18T08:51:28;35.63;;;25.85;;
68765;SDS011;55756;45.582;11.484;2022-11-18T08:53:55;38.55;;;26.35;;
68765;SDS011;55756;45.582;11.484;2022-11-18T08:56:21;36.22;;;25.75;;
68765;SDS011;55756;45.582;11.484;2022-11-18T08:58:48;37.55;;;26.90;;
68765;SDS011;55756;45.582;11.484;2022-11-18T09:01:15;35.97;;;26.02;;
68765;SDS011;55756;45.582;11.484;2022-11-18T09:03:41;36.05;;;26.02;;
68765;SDS011;55756;45.582;11.484;2022-11-18T09:06:08;37.15;;;25.45;;
68765;SDS011;55756;45.582;11.484;2022-11-18T09:08:36;31.25;;;23.55;;
68765;SDS011;55756;45.582;11.484;2022-11-18T09:11:09;31.95;;;22.98;;
68765;SDS011;55756;45.582;11.484;2022-11-18T09:13:39;29.35;;;21.27;;
68765;SDS011;55756;45.582;11.484;2022-11-18T09:16:05;28.10;;;19.85;;
68765;SDS011;55756;45.582;11.484;2022-11-18T09:18:32;23.88;;;18.67;;
68765;SDS011;55756;45.582;11.484;2022-11-18T09:21:02;29.80;;;20.10;;
68765;SDS011;55756;45.582;11.484;2022-11-18T09:23:29;26.10;;;19.10;;
68765;SDS011;55756;45.582;11.484;2022-11-18T09:26:00;25.30;;;18.30;;
68765;SDS011;55756;45.582;11.484;2022-11-18T09:28:26;25.92;;;17.65;;
68765;SDS011;55756;45.582;11.484;2022-11-18T09:30:52;24.55;;;17.58;;
68765;SDS011;55756;45.582;11.484;2022-11-18T09:33:18;26.30;;;19.15;;
68765;SDS011;55756;45.582;11.484;2022-11-18T09:35:44;28.20;;;20.50;;
68765;SDS011;55756;45.582;11.484;2022-11-18T09:38:10;26.48;;;19.65;;
68765;SDS011;55756;45.582;11.484;2022-11-18T09:40:39;34.10;;;22.25;;
68765;SDS011;55756;45.582;11.484;2022-11-18T09:43:29;34.10;;;23.23;;
68765;SDS011;55756;45.582;11.484;2022-11-18T09:46:20;35.83;;;23.92;;
68765;SDS011;55756;45.582;11.484;2022-11-18T09:48:55;38.17;;;26.35;;
68765;SDS011;55756;45.582;11.484;2022-11-18T09:51:43;41.05;;;27.25;;
68765;SDS011;55756;45.582;11.484;2022-11-18T09:54:12;42.40;;;28.63;;
68765;SDS011;55756;45.582;11.484;2022-11-18T09:56:47;48.63;;;31.35;;
68765;SDS011;55756;45.582;11.484;2022-11-18T09:59:16;57.65;;;36.42;;
68765;SDS011;55756;45.582;11.484;2022-11-18T10:01:44;57.83;;;37.95;;
68765;SDS011;55756;45.582;11.484;2022-11-18T10:04:15;63.55;;;38.95;;
68765;SDS011;55756;45.582;11.484;2022-11-18T10:06:42;71.65;;;42.17;;
68765;SDS011;55756;45.582;11.484;2022-11-18T10:20:46;73.07;;;42.80;;
68765;SDS011;55756;45.582;11.484;2022-11-18T10:23:28;70.07;;;42.17;;
68765;SDS011;55756;45.582;11.484;2022-11-18T10:25:59;67.25;;;41.72;;
68765;SDS011;55756;45.582;11.484;2022-11-18T10:28:26;67.20;;;42.17;;
68765;SDS011;55756;45.582;11.484;2022-11-18T10:30:54;65.65;;;40.72;;
68765;SDS011;55756;45.582;11.484;2022-11-18T10:33:34;70.22;;;41.50;;
68765;SDS011;55756;45.582;11.484;2022-11-18T10:36:13;63.42;;;38.65;;
68765;SDS011;55756;45.582;11.484;2022-11-18T10:38:52;61.72;;;39.45;;
68765;SDS011;55756;45.582;11.484;2022-11-18T10:41:38;67.57;;;39.30;;
68765;SDS011;55756;45.582;11.484;2022-11-18T10:46:55;63.45;;;39.25;;
68765;SDS011;55756;45.582;11.484;2022-11-18T10:49:38;65.55;;;39.42;;
68765;SDS011;55756;45.582;11.484;2022-11-18T10:52:07;62.20;;;37.17;;
68765;SDS011;55756;45.582;11.484;2022-11-18T10:54:35;58.13;;;37.40;;
68765;SDS011;55756;45.582;11.484;2022-11-18T10:59:49;61.03;;;37.53;;
68765;SDS011;55756;45.582;11.484;2022-11-18T11:02:33;59.33;;;36.80;;
68765;SDS011;55756;45.582;11.484;2022-11-18T11:05:18;63.67;;;39.28;;
68765;SDS011;55756;45.582;11.484;2022-11-18T11:07:52;58.80;;;38.08;;
68765;SDS011;55756;45.582;11.484;2022-11-18T11:10:30;59.25;;;38.50;;
68765;SDS011;55756;45.582;11.484;2022-11-18T11:12:58;61.17;;;37.22;;
68765;SDS011;55756;45.582;11.484;2022-11-18T11:15:41;57.13;;;36.80;;
68765;SDS011;55756;45.582;11.484;2022-11-18T11:21:12;58.10;;;34.55;;
68765;SDS011;55756;45.582;11.484;2022-11-18T11:23:44;54.15;;;34.10;;
68765;SDS011;55756;45.582;11.484;2022-11-18T11:26:31;48.47;;;32.08;;
68765;SDS011;55756;45.582;11.484;2022-11-18T11:32:05;46.03;;;30.15;;
68765;SDS011;55756;45.582;11.484;2022-11-18T11:34:59;42.78;;;27.20;;
68765;SDS011;55756;45.582;11.484;2022-11-18T11:51:33;41.17;;;26.50;;
68765;SDS011;55756;45.582;11.484;2022-11-18T11:53:50;39.97;;;26.38;;
68765;SDS011;55756;45.582;11.484;2022-11-18T11:56:37;37.33;;;24.33;;
68765;SDS011;55756;45.582;11.484;2022-11-18T12:04:59;38.10;;;25.67;;
68765;SDS011;55756;45.582;11.484;2022-11-18T12:07:29;43.13;;;25.70;;
68765;SDS011;55756;45.582;11.484;2022-11-18T12:12:37;40.23;;;25.30;;
68765;SDS011;55756;45.582;11.484;2022-11-18T12:20:39;45.60;;;28.17;;
68765;SDS011;55756;45.582;11.484;2022-11-18T12:23:18;44.75;;;29.83;;
68765;SDS011;55756;45.582;11.484;2022-11-18T12:33:53;49.35;;;32.03;;
68765;SDS011;55756;45.582;11.484;2022-11-18T12:36:26;51.08;;;32.85;;
68765;SDS011;55756;45.582;11.484;2022-11-18T12:38:54;47.58;;;31.25;;
68765;SDS011;55756;45.582;11.484;2022-11-18T12:44:37;50.00;;;31.55;;
68765;SDS011;55756;45.582;11.484;2022-11-18T12:47:04;50.25;;;32.10;;
68765;SDS011;55756;45.582;11.484;2022-11-18T12:51:58;50.65;;;31.33;;
68765;SDS011;55756;45.582;11.484;2022-11-18T12:56:53;48.28;;;30.40;;
68765;SDS011;55756;45.582;11.484;2022-11-18T12:59:26;46.75;;;29.02;;
68765;SDS011;55756;45.582;11.484;2022-11-18T13:04:28;47.30;;;30.38;;
68765;SDS011;55756;45.582;11.484;2022-11-18T13:06:54;44.50;;;29.98;;
68765;SDS011;55756;45.582;11.484;2022-11-18T13:09:24;45.50;;;29.92;;
68765;SDS011;55756;45.582;11.484;2022-11-18T13:11:58;47.83;;;31.65;;
68765;SDS011;55756;45.582;11.484;2022-11-18T13:14:27;45.30;;;30.95;;
68765;SDS011;55756;45.582;11.484;2022-11-18T13:23:01;43.38;;;30.60;;
68765;SDS011;55756;45.582;11.484;2022-11-18T13:31:16;48.10;;;32.25;;
68765;SDS011;55756;45.582;11.484;2022-11-18T13:33:43;50.08;;;31.85;;
68765;SDS011;55756;45.582;11.484;2022-11-18T13:36:20;50.28;;;33.30;;
68765;SDS011;55756;45.582;11.484;2022-11-18T13:38:56;53.80;;;34.55;;
68765;SDS011;55756;45.582;11.484;2022-11-18T13:41:25;48.22;;;33.33;;
68765;SDS011;55756;45.582;11.484;2022-11-18T13:44:09;48.42;;;32.97;;
68765;SDS011;55756;45.582;11.484;2022-11-18T13:46:38;47.97;;;33.63;;
68765;SDS011;55756;45.582;11.484;2022-11-18T13:49:09;50.90;;;33.50;;
68765;SDS011;55756;45.582;11.484;2022-11-18T13:51:40;53.85;;;34.47;;
68765;SDS011;55756;45.582;11.484;2022-11-18T13:54:06;52.78;;;32.95;;
68765;SDS011;55756;45.582;11.484;2022-11-18T13:56:42;52.08;;;32.75;;
68765;SDS011;55756;45.582;11.484;2022-11-18T13:59:13;47.42;;;32.67;;
68765;SDS011;55756;45.582;11.484;2022-11-18T14:01:42;50.42;;;33.50;;
68765;SDS011;55756;45.582;11.484;2022-11-18T14:04:16;46.97;;;33.28;;
68765;SDS011;55756;45.582;11.484;2022-11-18T14:06:44;47.40;;;31.85;;
68765;SDS011;55756;45.582;11.484;2022-11-18T14:09:26;50.05;;;32.38;;
68765;SDS011;55756;45.582;11.484;2022-11-18T14:14:47;51.63;;;34.17;;
68765;SDS011;55756;45.582;11.484;2022-11-18T14:17:21;46.25;;;33.30;;
68765;SDS011;55756;45.582;11.484;2022-11-18T14:19:52;53.03;;;34.27;;
68765;SDS011;55756;45.582;11.484;2022-11-18T14:22:26;56.85;;;35.83;;
68765;SDS011;55756;45.582;11.484;2022-11-18T14:25:13;50.95;;;34.03;;
68765;SDS011;55756;45.582;11.484;2022-11-18T14:27:43;50.45;;;34.42;;
68765;SDS011;55756;45.582;11.484;2022-11-18T14:30:30;47.60;;;34.80;;
68765;SDS011;55756;45.582;11.484;2022-11-18T14:33:09;55.40;;;37.13;;
68765;SDS011;55756;45.582;11.484;2022-11-18T14:35:35;50.92;;;36.83;;
68765;SDS011;55756;45.582;11.484;2022-11-18T14:38:24;50.20;;;36.17;;
68765;SDS011;55756;45.582;11.484;2022-11-18T14:40:55;56.55;;;36.45;;
68765;SDS011;55756;45.582;11.484;2022-11-18T14:43:23;52.45;;;37.28;;
68765;SDS011;55756;45.582;11.484;2022-11-18T14:45:49;54.95;;;37.20;;
68765;SDS011;55756;45.582;11.484;2022-11-18T14:48:17;49.43;;;34.70;;
68765;SDS011;55756;45.582;11.484;2022-11-18T14:50:45;47.92;;;34.83;;
68765;SDS011;55756;45.582;11.484;2022-11-18T14:53:12;48.60;;;35.00;;
68765;SDS011;55756;45.582;11.484;2022-11-18T14:55:38;51.42;;;34.90;;
68765;SDS011;55756;45.582;11.484;2022-11-18T14:58:07;49.60;;;34.20;;
68765;SDS011;55756;45.582;11.484;2022-11-18T15:00:38;50.42;;;33.63;;
68765;SDS011;55756;45.582;11.484;2022-11-18T15:03:05;52.45;;;34.60;;
68765;SDS011;55756;45.582;11.484;2022-11-18T15:05:31;52.83;;;35.42;;
68765;SDS011;55756;45.582;11.484;2022-11-18T15:07:57;53.17;;;35.90;;
68765;SDS011;55756;45.582;11.484;2022-11-18T15:10:23;54.05;;;36.97;;
68765;SDS011;55756;45.582;11.484;2022-11-18T15:12:49;54.90;;;37.13;;
68765;SDS011;55756;45.582;11.484;2022-11-18T15:15:14;59.90;;;40.60;;
68765;SDS011;55756;45.582;11.484;2022-11-18T15:17:40;57.85;;;38.50;;
68765;SDS011;55756;45.582;11.484;2022-11-18T15:20:08;55.63;;;38.00;;
68765;SDS011;55756;45.582;11.484;2022-11-18T15:22:36;53.65;;;36.78;;
68765;SDS011;55756;45.582;11.484;2022-11-18T15:25:02;59.33;;;38.03;;
68765;SDS011;55756;45.582;11.484;2022-11-18T15:27:28;57.60;;;38.38;;
68765;SDS011;55756;45.582;11.484;2022-11-18T15:29:54;59.88;;;39.40;;
68765;SDS011;55756;45.582;11.484;2022-11-18T15:32:20;61.40;;;40.42;;
68765;SDS011;55756;45.582;11.484;2022-11-18T15:34:46;62.85;;;39.75;;
68765;SDS011;55756;45.582;11.484;2022-11-18T15:37:12;62.53;;;39.58;;
68765;SDS011;55756;45.582;11.484;2022-11-18T15:39:38;64.05;;;40.55;;
68765;SDS011;55756;45.582;11.484;2022-11-18T15:42:04;65.78;;;41.53;;
68765;SDS011;55756;45.582;11.484;2022-11-18T15:44:30;62.95;;;42.00;;
68765;SDS011;55756;45.582;11.484;2022-11-18T15:46:55;61.90;;;41.58;;
68765;SDS011;55756;45.582;11.484;2022-11-18T15:49:22;64.15;;;42.72;;
68765;SDS011;55756;45.582;11.484;2022-11-18T15:51:48;62.15;;;41.50;;
68765;SDS011;55756;45.582;11.484;2022-11-18T15:54:13;62.25;;;42.10;;
68765;SDS011;55756;45.582;11.484;2022-11-18T15:56:40;63.90;;;42.00;;
68765;SDS011;55756;45.582;11.484;2022-11-18T15:59:09;70.38;;;42.78;;
68765;SDS011;55756;45.582;11.484;2022-11-18T16:01:40;66.22;;;42.53;;
68765;SDS011;55756;45.582;11.484;2022-11-18T16:04:08;68.88;;;45.33;;
68765;SDS011;55756;45.582;11.484;2022-11-18T16:06:35;80.00;;;46.17;;